Time;durP1;ratioP1;P1;durP2;ratioP2;P2;SDS_P1;SDS_P2;PMS_P1;PMS_P2;Temp;Humidity;BMP_temperature;BMP_pressure;BME280_temperature;BME280_humidity;BME280_pressure;Samples;Min_cycle;Max_cycle;Signal;HPM_P1;HPM_P2
2022/08/21 00:02:18;;;;;;;7.30;5.68;;;15.60;99.90;;;;;;5058122;28;20036;-30
2022/08/21 00:04:45;;;;;;;8.40;5.97;;;15.60;99.90;;;;;;5052359;28;20041;-29
2022/08/21 00:07:10;;;;;;;8.77;5.90;;;15.50;99.90;;;;;;5054946;28;20415;-30
2022/08/21 00:09:37;;;;;;;10.13;6.47;;;15.50;99.90;;;;;;5071774;28;20063;-33
2022/08/21 00:12:04;;;;;;;6.75;5.47;;;15.50;99.90;;;;;;5062017;28;20456;-30
2022/08/21 00:14:30;;;;;;;6.90;6.20;;;15.40;99.90;;;;;;5042532;28;20040;-30
2022/08/21 00:16:56;;;;;;;6.78;6.13;;;15.40;99.90;;;;;;5049559;28;20055;-30
2022/08/21 00:19:24;;;;;;;8.30;6.80;;;15.40;99.90;;;;;;5054119;28;20074;-30
2022/08/21 00:21:51;;;;;;;8.18;6.13;;;15.30;99.90;;;;;;5056711;28;20456;-29
2022/08/21 00:24:18;;;;;;;8.55;6.30;;;15.30;99.90;;;;;;5060766;28;20044;-34
2022/08/21 00:26:44;;;;;;;7.28;6.15;;;15.30;99.90;;;;;;5070059;28;20119;-29
2022/08/21 00:29:10;;;;;;;8.60;7.38;;;15.20;99.90;;;;;;5057792;28;20095;-30
2022/08/21 00:31:36;;;;;;;9.05;7.22;;;15.20;99.90;;;;;;5052751;28;20041;-31
2022/08/21 00:34:03;;;;;;;13.18;7.50;;;15.20;99.90;;;;;;5061084;28;20037;-31
2022/08/21 00:36:29;;;;;;;11.07;7.82;;;15.10;99.90;;;;;;5050729;28;20075;-31
2022/08/21 00:38:56;;;;;;;10.38;7.80;;;15.10;99.90;;;;;;5068099;28;20072;-29
2022/08/21 00:41:23;;;;;;;8.85;6.47;;;15.10;99.90;;;;;;5065425;28;20036;-30
2022/08/21 00:43:49;;;;;;;7.60;6.80;;;15.10;99.90;;;;;;5057276;28;20040;-29
2022/08/21 00:46:15;;;;;;;8.85;6.32;;;15.00;99.90;;;;;;5049887;28;20102;-28
2022/08/21 00:48:41;;;;;;;9.55;6.50;;;15.00;99.90;;;;;;5050113;28;20032;-30
2022/08/21 00:51:13;;;;;;;10.52;7.55;;;15.00;99.90;;;;;;5068096;28;20040;-31
2022/08/21 00:53:43;;;;;;;14.30;7.80;;;15.00;99.90;;;;;;5052126;28;20237;-30
2022/08/21 00:56:12;;;;;;;9.43;7.60;;;15.00;99.90;;;;;;5066163;28;20166;-29
2022/08/21 00:58:41;;;;;;;9.35;6.60;;;14.90;99.90;;;;;;5052970;28;20041;-31
2022/08/21 01:01:08;;;;;;;7.43;6.63;;;14.90;99.90;;;;;;5068610;28;20533;-31
2022/08/21 01:03:35;;;;;;;10.35;7.22;;;14.90;99.90;;;;;;5050865;28;20044;-29
2022/08/21 01:06:02;;;;;;;9.75;7.00;;;14.90;99.90;;;;;;5053214;28;20033;-31
2022/08/21 01:08:29;;;;;;;9.32;8.25;;;14.80;99.90;;;;;;5069458;28;20098;-30
2022/08/21 01:10:56;;;;;;;8.82;8.02;;;14.80;99.90;;;;;;5063094;28;20397;-29
2022/08/21 01:13:24;;;;;;;11.38;8.38;;;14.70;99.90;;;;;;5048114;28;20485;-30
2022/08/21 01:15:52;;;;;;;12.77;9.50;;;14.70;99.90;;;;;;5060292;28;20033;-31
2022/08/21 01:18:19;;;;;;;11.77;8.88;;;14.70;99.90;;;;;;5051832;28;20119;-29
2022/08/21 01:21:02;;;;;;;9.20;8.25;;;14.70;99.90;;;;;;5066903;28;20512;-32
2022/08/21 01:23:28;;;;;;;9.85;8.65;;;14.70;99.90;;;;;;5049973;28;20044;-30
2022/08/21 01:25:53;;;;;;;12.75;9.27;;;14.60;99.90;;;;;;5069166;28;20047;-30
2022/08/21 01:28:21;;;;;;;14.52;8.75;;;14.60;99.90;;;;;;5052588;28;20033;-30
2022/08/21 01:30:48;;;;;;;9.70;8.70;;;14.60;99.90;;;;;;5066521;28;20250;-29
2022/08/21 01:33:14;;;;;;;9.45;8.52;;;14.60;99.90;;;;;;5068568;28;20040;-30
2022/08/21 01:35:39;;;;;;;11.32;8.40;;;14.60;99.90;;;;;;5049645;28;20037;-29
2022/08/21 01:38:05;;;;;;;11.32;9.13;;;14.50;99.90;;;;;;5063050;28;20032;-28
2022/08/21 01:40:31;;;;;;;10.43;9.00;;;14.40;99.90;;;;;;5056603;28;20050;-30
2022/08/21 01:42:57;;;;;;;11.57;9.13;;;14.40;99.90;;;;;;5064951;28;20549;-28
2022/08/21 01:45:23;;;;;;;9.18;8.05;;;14.40;99.90;;;;;;5064779;28;20044;-29
2022/08/21 01:47:50;;;;;;;9.35;8.45;;;14.40;99.90;;;;;;5049814;28;20547;-29
2022/08/21 01:50:18;;;;;;;9.75;8.23;;;14.40;99.90;;;;;;5070703;28;20036;-32
2022/08/21 01:52:45;;;;;;;11.15;8.10;;;14.30;99.90;;;;;;5048089;28;20041;-29
2022/08/21 01:55:13;;;;;;;9.63;8.63;;;14.30;99.90;;;;;;5067665;28;20439;-29
2022/08/21 01:57:39;;;;;;;8.93;7.82;;;14.30;99.90;;;;;;5051207;28;20101;-31
2022/08/21 02:00:10;;;;;;;11.25;9.32;;;14.30;99.90;;;;;;5050903;28;20063;-29
2022/08/21 02:02:36;;;;;;;9.43;8.30;;;14.30;99.90;;;;;;5048163;28;20583;-32
2022/08/21 02:05:03;;;;;;;10.10;9.00;;;14.20;99.90;;;;;;5047666;28;20163;-29
2022/08/21 02:07:39;;;;;;;9.98;8.40;;;14.20;99.90;;;;;;5053209;28;20124;-31
2022/08/21 02:10:07;;;;;;;11.45;8.73;;;14.20;99.90;;;;;;5051142;28;20532;-30
2022/08/21 02:12:32;;;;;;;11.95;9.85;;;14.20;99.90;;;;;;5052312;28;20037;-30
2022/08/21 02:14:58;;;;;;;9.32;7.93;;;14.20;99.90;;;;;;5051890;28;20043;-30
2022/08/21 02:17:27;;;;;;;12.65;9.52;;;14.20;99.90;;;;;;5053652;28;20565;-29
2022/08/21 02:19:52;;;;;;;11.02;8.75;;;14.20;99.90;;;;;;5052849;28;20047;-28
2022/08/21 02:22:18;;;;;;;10.32;8.98;;;14.20;99.90;;;;;;5067330;28;20402;-30
2022/08/21 02:24:44;;;;;;;10.63;9.63;;;14.10;99.90;;;;;;5068258;28;20456;-32
2022/08/21 02:27:10;;;;;;;9.98;9.02;;;14.10;99.90;;;;;;5063229;28;20482;-29
2022/08/21 02:29:35;;;;;;;12.80;9.73;;;14.10;99.90;;;;;;5050290;28;20031;-30
2022/08/21 02:32:01;;;;;;;10.65;9.55;;;14.10;99.90;;;;;;5052158;28;20132;-32
2022/08/21 02:34:27;;;;;;;12.13;8.90;;;14.10;99.90;;;;;;5068758;28;20044;-29
2022/08/21 02:36:53;;;;;;;10.27;9.20;;;14.10;99.90;;;;;;5052168;28;20497;-28
2022/08/21 02:39:19;;;;;;;12.38;10.50;;;14.10;99.90;;;;;;5067604;28;20032;-30
2022/08/21 02:41:45;;;;;;;12.50;10.02;;;14.10;99.90;;;;;;5051812;28;20510;-29
2022/08/21 02:44:11;;;;;;;12.70;9.63;;;14.10;99.90;;;;;;5050280;28;20072;-29
2022/08/21 02:46:36;;;;;;;10.43;9.43;;;14.00;99.90;;;;;;5031611;28;20450;-30
2022/08/21 02:49:02;;;;;;;13.00;10.57;;;14.00;99.90;;;;;;5052348;28;20502;-30
2022/08/21 02:51:28;;;;;;;11.38;10.13;;;14.00;99.90;;;;;;5046726;28;20413;-29
2022/08/21 02:53:54;;;;;;;14.73;11.77;;;14.00;99.90;;;;;;5048328;28;20040;-31
2022/08/21 02:56:21;;;;;;;10.65;9.52;;;14.00;99.90;;;;;;5070115;28;20074;-30
2022/08/21 02:58:51;;;;;;;11.48;10.15;;;14.00;99.90;;;;;;5060085;28;20051;-30
2022/08/21 03:01:18;;;;;;;13.48;9.85;;;14.00;99.90;;;;;;5052351;28;20050;-32
2022/08/21 03:03:49;;;;;;;12.80;10.77;;;14.00;99.90;;;;;;5072065;28;20040;-29
2022/08/21 03:06:16;;;;;;;12.63;11.32;;;14.00;99.90;;;;;;5052821;28;20504;-30
2022/08/21 03:08:44;;;;;;;13.80;10.95;;;14.00;99.90;;;;;;5067809;28;20390;-30
2022/08/21 03:11:10;;;;;;;11.70;10.52;;;14.00;99.90;;;;;;5053686;28;20086;-29
2022/08/21 03:13:36;;;;;;;12.82;10.05;;;14.00;99.90;;;;;;5055727;28;20040;-30
2022/08/21 03:16:03;;;;;;;11.38;10.20;;;13.90;99.90;;;;;;5054101;28;20522;-29
2022/08/21 03:18:29;;;;;;;11.68;9.35;;;13.90;99.90;;;;;;5054101;28;20044;-31
2022/08/21 03:20:54;;;;;;;11.40;10.18;;;13.90;99.90;;;;;;5055277;28;20037;-31
2022/08/21 03:23:20;;;;;;;12.73;10.32;;;13.90;99.90;;;;;;5072293;28;20090;-30
2022/08/21 03:25:48;;;;;;;15.82;11.20;;;13.90;99.90;;;;;;5059855;28;20078;-31
2022/08/21 03:28:16;;;;;;;13.32;11.10;;;13.80;99.90;;;;;;5052612;28;20033;-32
2022/08/21 03:30:44;;;;;;;12.13;10.82;;;13.80;99.90;;;;;;5069862;28;20056;-29
2022/08/21 03:33:10;;;;;;;12.10;10.85;;;13.80;99.90;;;;;;5071711;28;20482;-30
2022/08/21 03:35:36;;;;;;;12.30;9.60;;;13.80;99.90;;;;;;5051890;28;20054;-31
2022/08/21 03:38:02;;;;;;;10.48;9.43;;;13.80;99.90;;;;;;5050462;28;20123;-29
2022/08/21 03:40:29;;;;;;;11.48;10.38;;;13.70;99.90;;;;;;5062486;28;20041;-31
2022/08/21 03:42:54;;;;;;;11.70;10.50;;;13.70;99.90;;;;;;5049347;28;20036;-29
2022/08/21 03:45:21;;;;;;;12.07;10.57;;;13.70;99.90;;;;;;5052607;28;20048;-31
2022/08/21 03:47:57;;;;;;;12.95;10.38;;;13.60;99.90;;;;;;5069670;28;20047;-31
2022/08/21 03:50:25;;;;;;;11.65;10.15;;;13.60;99.90;;;;;;5069499;28;20476;-29
2022/08/21 03:52:51;;;;;;;11.32;10.10;;;13.60;99.90;;;;;;5053913;28;20032;-31
2022/08/21 03:55:17;;;;;;;11.02;10.02;;;13.50;99.90;;;;;;5053247;28;20040;-29
2022/08/21 03:57:43;;;;;;;12.45;11.15;;;13.50;99.90;;;;;;5052667;28;20127;-30
2022/08/21 04:00:11;;;;;;;12.23;10.52;;;13.50;99.90;;;;;;5071552;28;20115;-30
2022/08/21 04:02:38;;;;;;;11.32;10.23;;;13.50;99.90;;;;;;5051588;28;20075;-29
2022/08/21 04:05:05;;;;;;;10.82;9.93;;;13.50;99.90;;;;;;5053666;28;20033;-28
2022/08/21 04:07:31;;;;;;;12.30;11.15;;;13.50;99.90;;;;;;5067137;28;20102;-31
2022/08/21 04:09:57;;;;;;;15.30;10.85;;;13.50;99.90;;;;;;5053381;28;20040;-30
2022/08/21 04:12:23;;;;;;;11.35;10.25;;;13.50;99.90;;;;;;5051739;28;20052;-32
2022/08/21 04:14:51;;;;;;;11.23;10.13;;;13.50;99.90;;;;;;5053837;28;20044;-29
2022/08/21 04:17:17;;;;;;;16.33;11.50;;;13.50;99.90;;;;;;5068893;28;20051;-31
2022/08/21 04:19:43;;;;;;;15.30;11.13;;;13.50;99.90;;;;;;5053287;28;20040;-28
2022/08/21 04:22:09;;;;;;;12.10;10.90;;;13.40;99.90;;;;;;5051066;28;20555;-29
2022/08/21 04:24:35;;;;;;;11.77;10.57;;;13.40;99.90;;;;;;5053371;28;20171;-30
2022/08/21 04:27:01;;;;;;;13.50;11.25;;;13.40;99.90;;;;;;5048355;28;20119;-29
2022/08/21 04:29:27;;;;;;;11.93;10.73;;;13.40;99.90;;;;;;5066883;28;20036;-29
2022/08/21 04:31:53;;;;;;;12.93;11.68;;;13.40;99.90;;;;;;5038207;28;20037;-30
2022/08/21 04:34:18;;;;;;;13.55;11.88;;;13.40;99.90;;;;;;5068670;28;20028;-30
2022/08/21 04:36:44;;;;;;;11.60;10.50;;;13.50;99.90;;;;;;5050863;28;20036;-29
2022/08/21 04:39:10;;;;;;;13.27;11.43;;;13.40;99.90;;;;;;5044686;28;20049;-32
2022/08/21 04:41:36;;;;;;;12.15;10.95;;;13.40;99.90;;;;;;5051190;28;20499;-29
2022/08/21 04:44:03;;;;;;;12.85;11.15;;;13.40;99.90;;;;;;5051441;28;20486;-29
2022/08/21 04:46:29;;;;;;;14.45;11.43;;;13.40;99.90;;;;;;5050038;28;20043;-30
2022/08/21 04:48:55;;;;;;;12.38;11.23;;;13.50;99.90;;;;;;5051879;28;20116;-29
2022/08/21 04:51:30;;;;;;;12.00;10.77;;;13.50;99.90;;;;;;5069696;28;20032;-35
2022/08/21 04:54:01;;;;;;;12.98;11.45;;;13.50;99.90;;;;;;5056104;28;20512;-28
2022/08/21 04:56:31;;;;;;;14.18;12.63;;;13.50;99.90;;;;;;5051981;28;20488;-29
2022/08/21 04:59:02;;;;;;;13.65;12.05;;;13.50;99.90;;;;;;5068704;28;20512;-29
2022/08/21 05:01:30;;;;;;;16.20;12.13;;;13.50;99.90;;;;;;5065692;28;20044;-30
2022/08/21 05:03:59;;;;;;;13.60;12.20;;;13.50;99.90;;;;;;5053107;28;20064;-28
2022/08/21 05:06:26;;;;;;;13.15;11.20;;;13.60;99.90;;;;;;5032300;28;20036;-31
2022/08/21 05:08:54;;;;;;;12.48;11.15;;;13.60;99.90;;;;;;5051052;28;20039;-32
2022/08/21 05:11:20;;;;;;;13.50;11.15;;;13.60;99.90;;;;;;5048994;28;20032;-30
2022/08/21 05:13:46;;;;;;;10.93;9.93;;;13.60;99.90;;;;;;5051470;28;20128;-30
2022/08/21 05:16:12;;;;;;;12.98;10.65;;;13.70;99.90;;;;;;5052493;28;20043;-29
2022/08/21 05:18:38;;;;;;;14.05;11.68;;;13.80;99.90;;;;;;5068644;28;20040;-31
2022/08/21 05:21:04;;;;;;;11.60;10.52;;;13.80;99.90;;;;;;5052138;28;20083;-29
2022/08/21 05:23:30;;;;;;;11.55;10.38;;;13.80;99.90;;;;;;5069360;28;20063;-30
2022/08/21 05:25:57;;;;;;;13.45;10.88;;;13.90;99.90;;;;;;5050716;28;20505;-30
2022/08/21 05:28:23;;;;;;;12.60;10.65;;;13.90;99.90;;;;;;5049130;28;20098;-29
2022/08/21 05:30:49;;;;;;;12.38;10.57;;;13.90;99.90;;;;;;5051339;28;20543;-30
2022/08/21 05:33:15;;;;;;;12.18;10.80;;;14.00;99.90;;;;;;5048238;28;20082;-30
2022/08/21 05:35:41;;;;;;;12.48;11.10;;;14.00;99.90;;;;;;5051837;28;20169;-29
2022/08/21 05:38:07;;;;;;;12.48;11.13;;;14.00;99.90;;;;;;5049253;28;20551;-32
2022/08/21 05:40:33;;;;;;;11.48;10.38;;;14.10;99.90;;;;;;5067157;28;20524;-31
2022/08/21 05:42:59;;;;;;;12.13;10.85;;;14.10;99.90;;;;;;5068113;28;20028;-30
2022/08/21 05:45:31;;;;;;;11.60;10.15;;;14.20;99.90;;;;;;5051443;28;20483;-31
2022/08/21 05:47:57;;;;;;;12.48;10.15;;;14.30;99.90;;;;;;5068007;28;20032;-31
2022/08/21 05:50:22;;;;;;;13.55;9.68;;;14.30;99.90;;;;;;5059797;28;20507;-28
2022/08/21 05:52:48;;;;;;;14.45;8.95;;;14.30;99.90;;;;;;5051678;28;20040;-31
2022/08/21 05:55:14;;;;;;;12.25;9.95;;;14.40;99.90;;;;;;5049657;28;20036;-32
2022/08/21 05:57:41;;;;;;;11.77;9.27;;;14.50;99.90;;;;;;5050527;28;20032;-29
2022/08/21 06:00:12;;;;;;;11.70;9.68;;;14.50;99.90;;;;;;5051517;28;20549;-31
2022/08/21 06:02:39;;;;;;;11.18;9.43;;;14.60;99.90;;;;;;5047300;28;20075;-30
2022/08/21 06:05:06;;;;;;;12.57;8.80;;;14.60;99.90;;;;;;5050890;28;20459;-29
2022/08/21 06:07:32;;;;;;;12.30;9.18;;;14.70;99.90;;;;;;5033962;28;20093;-29
2022/08/21 06:09:58;;;;;;;11.20;8.52;;;14.70;99.90;;;;;;5029525;28;20044;-32
2022/08/21 06:12:24;;;;;;;13.50;8.63;;;14.80;99.90;;;;;;5050528;28;20097;-31
2022/08/21 06:14:51;;;;;;;13.15;9.20;;;14.90;99.90;;;;;;5066364;28;20068;-29
2022/08/21 06:17:17;;;;;;;12.80;9.45;;;14.90;99.90;;;;;;5049023;28;20068;-32
2022/08/21 06:19:43;;;;;;;10.80;8.82;;;15.00;99.90;;;;;;5045516;28;20119;-33
2022/08/21 06:22:09;;;;;;;13.23;9.07;;;15.10;99.90;;;;;;5067720;28;20115;-29
2022/08/21 06:24:35;;;;;;;11.38;8.32;;;15.10;99.90;;;;;;5046389;28;20033;-31
2022/08/21 06:27:08;;;;;;;11.60;8.70;;;15.20;99.90;;;;;;5047946;28;20115;-30
2022/08/21 06:29:35;;;;;;;10.33;8.03;;;15.30;99.90;;;;;;5048253;28;20033;-31
2022/08/21 06:32:02;;;;;;;11.70;8.80;;;15.40;99.90;;;;;;5050545;28;20421;-29
2022/08/21 06:34:28;;;;;;;12.20;8.43;;;15.40;99.90;;;;;;5045866;28;20040;-29
2022/08/21 06:36:53;;;;;;;10.40;7.80;;;15.50;99.90;;;;;;5045684;28;20482;-32
2022/08/21 06:39:19;;;;;;;10.45;7.38;;;15.60;99.90;;;;;;5059536;28;20028;-30
2022/08/21 06:41:48;;;;;;;12.00;7.57;;;15.60;99.90;;;;;;5049009;28;20032;-31
2022/08/21 06:44:16;;;;;;;11.32;8.07;;;15.70;99.90;;;;;;5051498;28;20127;-31
2022/08/21 06:46:41;;;;;;;13.70;7.88;;;15.80;99.90;;;;;;5062500;28;20033;-31
2022/08/21 06:49:07;;;;;;;9.23;8.20;;;15.80;99.90;;;;;;5049583;28;20048;-30
2022/08/21 06:51:33;;;;;;;12.38;6.55;;;15.90;99.90;;;;;;5062398;28;20037;-32
2022/08/21 06:53:59;;;;;;;10.93;7.90;;;16.00;99.90;;;;;;5050200;28;20098;-28
2022/08/21 06:56:25;;;;;;;19.00;7.20;;;16.10;99.90;;;;;;5065860;28;20047;-29
2022/08/21 06:58:50;;;;;;;9.77;6.95;;;16.20;99.90;;;;;;5050316;28;20041;-33
2022/08/21 07:01:16;;;;;;;12.40;7.05;;;16.20;99.90;;;;;;5047012;28;20449;-32
2022/08/21 07:03:44;;;;;;;9.82;6.68;;;16.30;99.90;;;;;;5050478;28;20513;-30
2022/08/21 07:06:12;;;;;;;10.45;6.40;;;16.40;99.90;;;;;;5060072;28;20494;-31
2022/08/21 07:08:38;;;;;;;8.98;6.70;;;16.50;99.90;;;;;;5047435;28;20056;-31
2022/08/21 07:11:12;;;;;;;14.60;7.05;;;16.60;99.90;;;;;;5047736;28;20035;-31
2022/08/21 07:13:38;;;;;;;10.00;6.43;;;16.60;99.90;;;;;;5051787;28;20512;-31
2022/08/21 07:16:04;;;;;;;9.80;6.30;;;16.70;99.90;;;;;;5049198;28;20041;-32
2022/08/21 07:18:31;;;;;;;11.82;6.57;;;16.80;99.90;;;;;;5050370;28;20128;-30
2022/08/21 07:20:56;;;;;;;9.77;6.40;;;16.90;99.90;;;;;;5047652;28;20036;-30
2022/08/21 07:23:27;;;;;;;9.43;6.55;;;17.00;99.90;;;;;;5066147;28;20114;-31
2022/08/21 07:25:53;;;;;;;10.02;6.63;;;17.20;99.90;;;;;;5061915;28;20056;-30
2022/08/21 07:28:19;;;;;;;9.65;6.57;;;17.30;99.90;;;;;;5045286;28;20036;-29
2022/08/21 07:30:45;;;;;;;9.68;6.40;;;17.40;99.90;;;;;;5066309;28;20068;-29
2022/08/21 07:33:12;;;;;;;11.20;6.65;;;17.60;99.90;;;;;;5066893;28;20094;-30
2022/08/21 07:35:39;;;;;;;10.23;6.70;;;17.80;99.90;;;;;;5051336;28;20494;-30
2022/08/21 07:38:04;;;;;;;12.82;6.57;;;17.90;99.90;;;;;;5045785;28;20044;-30
2022/08/21 07:40:30;;;;;;;16.58;6.78;;;18.20;99.90;;;;;;5047108;28;20036;-31
2022/08/21 07:42:56;;;;;;;10.55;6.15;;;18.40;99.90;;;;;;5068488;28;20074;-31
2022/08/21 07:45:26;;;;;;;11.65;6.45;;;18.60;99.90;;;;;;5068425;28;20055;-32
2022/08/21 07:47:52;;;;;;;9.40;6.40;;;18.90;99.90;;;;;;5053826;28;20044;-29
2022/08/21 07:50:19;;;;;;;10.70;5.55;;;19.10;99.90;;;;;;5061674;28;20043;-31
2022/08/21 07:52:45;;;;;;;11.02;6.03;;;19.40;99.90;;;;;;5070084;28;20037;-30
2022/08/21 07:55:14;;;;;;;11.55;5.72;;;19.60;99.90;;;;;;5069179;28;20036;-31
2022/08/21 07:57:40;;;;;;;10.45;5.40;;;19.80;99.90;;;;;;5070814;28;20177;-29
2022/08/21 08:00:09;;;;;;;7.95;4.78;;;20.00;99.90;;;;;;5051668;28;20043;-31
2022/08/21 08:02:35;;;;;;;11.98;5.30;;;20.20;99.90;;;;;;5069998;28;20559;-30
2022/08/21 08:05:03;;;;;;;7.97;4.70;;;20.40;99.90;;;;;;5045947;28;20032;-30
2022/08/21 08:07:29;;;;;;;7.85;4.55;;;20.60;99.90;;;;;;5066303;28;20387;-29
2022/08/21 08:09:55;;;;;;;12.02;5.07;;;20.80;99.90;;;;;;5064276;28;20029;-30
2022/08/21 08:12:29;;;;;;;6.97;4.50;;;21.00;99.90;;;;;;5053853;28;20043;-30
2022/08/21 08:14:58;;;;;;;;;;;21.10;99.90;;;;;;5063803;28;20402;-30
2022/08/21 08:17:25;;;;;;;8.13;3.55;;;21.30;99.90;;;;;;5049428;28;19920;-30
2022/08/21 08:19:51;;;;;;;8.85;4.30;;;21.40;99.90;;;;;;5052994;28;20036;-31
2022/08/21 08:22:19;;;;;;;7.47;4.13;;;21.50;99.90;;;;;;5053116;28;20040;-30
2022/08/21 08:24:46;;;;;;;8.68;3.58;;;21.70;99.90;;;;;;5047547;28;20041;-30
2022/08/21 08:27:12;;;;;;;6.85;3.55;;;21.80;99.90;;;;;;5051505;28;20112;-30
2022/08/21 08:29:38;;;;;;;6.38;3.67;;;21.90;99.90;;;;;;5052042;28;20119;-29
2022/08/21 08:32:07;;;;;;;5.00;3.40;;;22.00;99.90;;;;;;5051919;28;20408;-30
2022/08/21 08:34:33;;;;;;;7.13;3.58;;;22.10;99.90;;;;;;5053964;28;20124;-31
2022/08/21 08:36:59;;;;;;;9.10;3.92;;;22.30;99.90;;;;;;5071230;28;20540;-29
2022/08/21 08:39:25;;;;;;;8.50;3.10;;;22.40;99.90;;;;;;5053494;28;20072;-32
2022/08/21 08:42:01;;;;;;;5.38;3.50;;;22.60;99.90;;;;;;5035042;28;20559;-31
2022/08/21 08:44:27;;;;;;;6.93;3.40;;;22.70;99.90;;;;;;5052794;28;20040;-31
2022/08/21 08:46:53;;;;;;;5.32;3.05;;;22.80;99.90;;;;;;5053157;28;20241;-29
2022/08/21 08:49:27;;;;;;;8.95;3.63;;;23.00;99.90;;;;;;5053515;28;20849;-30
2022/08/21 08:52:36;;;;;;;8.18;4.03;;;23.20;99.90;;;;;;5049368;28;20063;-29
2022/08/21 08:55:16;;;;;;;6.57;3.65;;;23.30;99.90;;;;;;4990344;28;20159;-31
2022/08/21 08:57:46;;;;;;;5.00;3.50;;;23.70;99.90;;;;;;4991029;28;20098;-27
2022/08/21 09:00:14;;;;;;;5.85;3.35;;;23.80;99.90;;;;;;5041482;28;20436;-27
2022/08/21 09:02:42;;;;;;;5.82;3.40;;;24.00;99.90;;;;;;5072128;28;20162;-27
2022/08/21 09:05:15;;;;;;;7.63;3.28;;;24.30;99.90;;;;;;5055325;28;20048;-26
2022/08/21 09:08:00;;;;;;;13.25;4.07;;;24.60;99.90;;;;;;5072217;28;20036;-26
2022/08/21 09:11:03;;;;;;;9.68;3.70;;;25.00;96.10;;;;;;5055387;28;20432;-26
2022/08/21 09:13:47;;;;;;;5.63;3.40;;;25.00;96.80;;;;;;5054777;28;20051;-27
2022/08/21 09:16:37;;;;;;;5.60;2.85;;;24.70;99.90;;;;;;5055325;28;20056;-26
2022/08/21 09:19:30;;;;;;;7.82;3.28;;;24.60;93.20;;;;;;5054842;28;20040;-27
2022/08/21 09:22:17;;;;;;;6.65;3.28;;;24.70;94.60;;;;;;5035133;28;20056;-26
2022/08/21 09:24:50;;;;;;;5.82;2.80;;;24.80;96.40;;;;;;5051247;28;20052;-27
2022/08/21 09:27:18;;;;;;;8.75;3.25;;;24.70;99.80;;;;;;5051290;28;20127;-26
2022/08/21 09:29:51;;;;;;;6.43;2.60;;;24.10;97.50;;;;;;5051099;28;20047;-26
2022/08/21 09:32:26;;;;;;;5.43;2.75;;;24.00;97.80;;;;;;5051274;28;20036;-27
2022/08/21 09:35:00;;;;;;;6.45;3.38;;;24.20;97.90;;;;;;5051182;28;20036;-28
2022/08/21 09:37:28;;;;;;;7.57;2.70;;;24.40;98.20;;;;;;5051655;28;20048;-26
2022/08/21 09:39:57;;;;;;;8.02;3.17;;;24.70;96.90;;;;;;5051220;28;20044;-25
2022/08/21 09:42:31;;;;;;;4.63;2.78;;;25.00;96.50;;;;;;5051347;28;20079;-26
2022/08/21 09:45:13;;;;;;;5.45;3.33;;;25.10;91.30;;;;;;5051327;28;20557;-26
2022/08/21 09:47:41;;;;;;;4.93;2.53;;;25.50;91.20;;;;;;5050955;28;20139;-26
2022/08/21 09:50:21;;;;;;;8.07;3.00;;;25.70;92.10;;;;;;5051023;28;20029;-28
2022/08/21 09:52:50;;;;;;;4.85;2.75;;;25.70;83.00;;;;;;5050964;28;20471;-27
2022/08/21 09:58:06;;;;;;;6.10;2.58;;;26.20;76.10;;;;;;5052140;28;20049;-28
2022/08/21 10:00:34;;;;;;;8.38;2.75;;;26.40;88.70;;;;;;5050962;28;20215;-27
2022/08/21 10:03:21;;;;;;;5.18;2.50;;;26.80;83.00;;;;;;5050595;28;20110;-28
2022/08/21 10:05:57;;;;;;;4.22;2.25;;;26.70;68.80;;;;;;5055588;28;20044;-28
2022/08/21 10:08:26;;;;;;;4.93;2.03;;;26.80;77.60;;;;;;5053926;28;20066;-28
2022/08/21 10:10:56;;;;;;;5.82;2.22;;;27.00;72.70;;;;;;5053800;28;20032;-27
2022/08/21 10:13:37;;;;;;;5.40;2.63;;;26.80;69.80;;;;;;5053578;28;20087;-27
2022/08/21 10:16:22;;;;;;;5.95;2.88;;;27.00;67.70;;;;;;5053830;28;20044;-27
2022/08/21 10:19:09;;;;;;;5.30;2.88;;;27.00;67.80;;;;;;5053193;28;20044;-27
2022/08/21 10:21:46;;;;;;;4.35;2.47;;;26.70;62.90;;;;;;5053948;28;20078;-27
2022/08/21 10:24:33;;;;;;;5.10;2.65;;;26.90;65.70;;;;;;5053815;28;20037;-28
2022/08/21 10:27:15;;;;;;;6.30;2.70;;;27.30;68.90;;;;;;5053459;28;20040;-27
2022/08/21 10:29:53;;;;;;;6.00;2.30;;;27.70;63.60;;;;;;5053785;28;20029;-27
2022/08/21 10:32:34;;;;;;;5.38;2.42;;;27.20;61.20;;;;;;5053627;28;20433;-26
2022/08/21 10:35:50;;;;;;;7.07;2.60;;;26.90;60.60;;;;;;5053688;28;20418;-28
2022/08/21 10:39:06;;;;;;;4.63;2.25;;;26.60;60.90;;;;;;5009569;28;20406;-26
2022/08/21 10:42:05;;;;;;;5.85;2.10;;;26.10;69.20;;;;;;4935152;29;20461;-27
2022/08/21 10:44:46;;;;;;;6.40;2.20;;;25.90;74.40;;;;;;4954359;28;20082;-27
2022/08/21 10:47:18;;;;;;;6.70;2.63;;;26.00;76.80;;;;;;5033370;28;20044;-28
2022/08/21 10:49:44;;;;;;;4.47;1.70;;;26.70;78.10;;;;;;5053601;28;20082;-27
2022/08/21 10:52:12;;;;;;;5.13;2.03;;;27.20;70.50;;;;;;5071871;28;20044;-28
2022/08/21 10:54:47;;;;;;;3.47;1.60;;;27.50;67.30;;;;;;5053581;28;20398;-26
2022/08/21 10:57:39;;;;;;;5.28;2.10;;;27.90;66.40;;;;;;5053454;28;20063;-28
2022/08/21 11:00:11;;;;;;;5.70;2.08;;;28.20;60.80;;;;;;5053803;28;20036;-27
2022/08/21 11:02:47;;;;;;;5.97;1.95;;;28.10;62.20;;;;;;5053473;28;20037;-28
2022/08/21 11:05:30;;;;;;;5.47;1.80;;;28.50;64.00;;;;;;5053259;28;20045;-28
2022/08/21 11:08:26;;;;;;;4.13;1.42;;;28.70;59.00;;;;;;5053533;28;20545;-28
2022/08/21 11:11:06;;;;;;;4.95;1.70;;;28.70;58.40;;;;;;5064046;28;20131;-27
2022/08/21 11:13:56;;;;;;;7.40;1.92;;;29.10;57.60;;;;;;5069934;28;20061;-27
2022/08/21 11:16:41;;;;;;;3.10;1.45;;;28.90;55.20;;;;;;5070092;28;20115;-27
2022/08/21 11:19:51;;;;;;;3.35;1.90;;;28.30;55.80;;;;;;5074076;28;20143;-28
2022/08/21 11:22:20;;;;;;;3.97;1.52;;;28.10;54.60;;;;;;5048714;28;20482;-27
2022/08/21 11:25:06;;;;;;;6.50;1.80;;;27.90;55.70;;;;;;5056963;28;20044;-27
2022/08/21 11:27:53;;;;;;;4.07;1.60;;;28.10;55.20;;;;;;5073476;28;20036;-28
2022/08/21 11:30:20;;;;;;;3.92;1.52;;;27.80;57.20;;;;;;5073860;28;20032;-28
2022/08/21 11:33:18;;;;;;;4.50;1.52;;;27.50;57.90;;;;;;5074066;28;20465;-26
2022/08/21 11:35:54;;;;;;;8.05;2.17;;;27.60;57.30;;;;;;5057583;28;20044;-28
2022/08/21 11:38:27;;;;;;;5.82;1.83;;;28.30;60.80;;;;;;5073625;28;20036;-28
2022/08/21 11:41:02;;;;;;;3.08;1.90;;;28.70;57.80;;;;;;5073043;28;20051;-28
2022/08/21 11:43:43;;;;;;;5.25;1.70;;;28.90;56.50;;;;;;5056562;28;20032;-28
2022/08/21 11:46:31;;;;;;;8.18;1.85;;;28.60;54.80;;;;;;5056694;28;20040;-27
2022/08/21 11:49:12;;;;;;;5.72;1.88;;;29.10;52.20;;;;;;5073443;28;20033;-26
2022/08/21 11:51:45;;;;;;;5.10;1.73;;;29.40;53.40;;;;;;5039926;28;20101;-28
2022/08/21 11:54:23;;;;;;;4.35;2.08;;;29.80;52.10;;;;;;5073035;28;20060;-28
2022/08/21 11:56:59;;;;;;;4.40;1.73;;;30.00;49.90;;;;;;5056502;28;20076;-27
2022/08/21 11:59:38;;;;;;;3.13;1.70;;;30.00;50.40;;;;;;5073336;28;20116;-28
2022/08/21 12:02:12;;;;;;;5.47;1.77;;;30.40;51.00;;;;;;5074208;28;20038;-27
2022/08/21 12:05:03;;;;;;;5.70;1.98;;;30.60;49.90;;;;;;5072990;28;20497;-28
2022/08/21 12:07:39;;;;;;;4.43;1.95;;;30.80;49.20;;;;;;5055497;28;20044;-28
2022/08/21 12:10:16;;;;;;;4.28;1.60;;;31.20;48.10;;;;;;5072833;28;20040;-28
2022/08/21 12:12:44;;;;;;;3.15;1.60;;;31.00;47.40;;;;;;5072880;28;20039;-28
2022/08/21 12:15:22;;;;;;;4.80;1.60;;;31.00;49.70;;;;;;5055857;28;20047;-27
2022/08/21 12:18:02;;;;;;;4.70;1.77;;;31.50;49.10;;;;;;5039705;28;20414;-28
2022/08/21 12:21:18;;;;;;;5.53;1.92;;;31.60;47.80;;;;;;5072478;28;20045;-29
2022/08/21 12:24:05;;;;;;;4.38;1.63;;;31.70;46.50;;;;;;5056048;28;20086;-28
2022/08/21 12:26:47;;;;;;;4.18;1.55;;;32.30;43.90;;;;;;5056988;28;20036;-31
2022/08/21 12:29:25;;;;;;;4.63;1.77;;;31.80;45.80;;;;;;5070966;28;20438;-32
2022/08/21 12:31:56;;;;;;;5.10;1.75;;;31.40;46.20;;;;;;5056349;28;20036;-33
2022/08/21 12:34:32;;;;;;;3.97;1.80;;;31.50;47.30;;;;;;5054291;28;20097;-33
2022/08/21 12:37:03;;;;;;;5.22;1.73;;;31.30;45.90;;;;;;5050230;28;20295;-32
2022/08/21 12:39:32;;;;;;;2.40;1.20;;;31.00;46.80;;;;;;5048907;28;20508;-33
2022/08/21 12:42:13;;;;;;;5.65;2.17;;;30.90;45.80;;;;;;5054232;28;20044;-33
2022/08/21 12:44:59;;;;;;;3.65;1.50;;;30.70;46.10;;;;;;5049761;28;20040;-33
2022/08/21 12:47:43;;;;;;;3.90;1.70;;;30.90;47.50;;;;;;5049860;28;20493;-35
2022/08/21 12:50:37;;;;;;;3.17;1.67;;;31.00;47.60;;;;;;5048157;28;20098;-34
2022/08/21 12:53:23;;;;;;;6.32;1.70;;;30.90;46.70;;;;;;5054369;28;20584;-31
2022/08/21 12:55:49;;;;;;;4.13;1.80;;;30.50;46.30;;;;;;5053780;28;20032;-33
2022/08/21 12:58:21;;;;;;;5.60;1.70;;;30.20;47.50;;;;;;5069852;28;20039;-31
2022/08/21 13:01:11;;;;;;;5.27;1.93;;;30.10;48.60;;;;;;5042248;28;20039;-30
2022/08/21 13:03:37;;;;;;;5.43;1.77;;;30.30;49.70;;;;;;5063817;28;20478;-32